sensor_id;sensor_type;location;lat;lon;timestamp;P1;durP1;ratioP1;P2;durP2;ratioP2
16600;SDS011;34891;48.164;11.572;2022-09-12T00:04:46;4.80;;;2.47;;
16600;SDS011;34891;48.164;11.572;2022-09-12T00:09:50;4.07;;;2.17;;
16600;SDS011;34891;48.164;11.572;2022-09-12T00:14:54;3.97;;;2.13;;
16600;SDS011;34891;48.164;11.572;2022-09-12T00:19:56;4.95;;;2.38;;
16600;SDS011;34891;48.164;11.572;2022-09-12T00:25:01;5.37;;;2.73;;
16600;SDS011;34891;48.164;11.572;2022-09-12T00:30:05;10.73;;;3.22;;
16600;SDS011;34891;48.164;11.572;2022-09-12T00:35:08;5.70;;;2.60;;
16600;SDS011;34891;48.164;11.572;2022-09-12T00:40:12;5.30;;;2.77;;
16600;SDS011;34891;48.164;11.572;2022-09-12T00:45:17;5.88;;;2.45;;
16600;SDS011;34891;48.164;11.572;2022-09-12T00:50:22;10.20;;;2.90;;
16600;SDS011;34891;48.164;11.572;2022-09-12T00:55:29;6.03;;;3.20;;
16600;SDS011;34891;48.164;11.572;2022-09-12T01:00:33;4.90;;;2.33;;
16600;SDS011;34891;48.164;11.572;2022-09-12T01:05:37;5.90;;;3.00;;
16600;SDS011;34891;48.164;11.572;2022-09-12T01:10:42;7.13;;;2.63;;
16600;SDS011;34891;48.164;11.572;2022-09-12T01:15:45;4.93;;;2.00;;
16600;SDS011;34891;48.164;11.572;2022-09-12T01:20:49;6.30;;;2.38;;
16600;SDS011;34891;48.164;11.572;2022-09-12T01:31:15;5.53;;;2.78;;
16600;SDS011;34891;48.164;11.572;2022-09-12T01:36:24;4.85;;;2.75;;
16600;SDS011;34891;48.164;11.572;2022-09-12T01:41:33;3.55;;;2.08;;
16600;SDS011;34891;48.164;11.572;2022-09-12T01:46:44;3.78;;;2.33;;
16600;SDS011;34891;48.164;11.572;2022-09-12T01:51:52;3.13;;;1.70;;
16600;SDS011;34891;48.164;11.572;2022-09-12T01:56:57;4.32;;;2.38;;
16600;SDS011;34891;48.164;11.572;2022-09-12T02:02:04;6.18;;;3.15;;
16600;SDS011;34891;48.164;11.572;2022-09-12T02:07:17;5.85;;;3.00;;
16600;SDS011;34891;48.164;11.572;2022-09-12T02:12:22;7.15;;;3.30;;
16600;SDS011;34891;48.164;11.572;2022-09-12T02:17:28;4.93;;;2.53;;
16600;SDS011;34891;48.164;11.572;2022-09-12T02:22:31;7.60;;;3.17;;
16600;SDS011;34891;48.164;11.572;2022-09-12T02:27:38;5.65;;;2.75;;
16600;SDS011;34891;48.164;11.572;2022-09-12T02:32:44;6.53;;;3.17;;
16600;SDS011;34891;48.164;11.572;2022-09-12T02:37:54;8.82;;;3.20;;
16600;SDS011;34891;48.164;11.572;2022-09-12T02:42:58;6.60;;;2.92;;
16600;SDS011;34891;48.164;11.572;2022-09-12T02:48:03;7.45;;;3.00;;
16600;SDS011;34891;48.164;11.572;2022-09-12T02:53:07;5.40;;;2.92;;
16600;SDS011;34891;48.164;11.572;2022-09-12T02:58:13;4.13;;;2.17;;
16600;SDS011;34891;48.164;11.572;2022-09-12T03:03:25;4.65;;;2.50;;
16600;SDS011;34891;48.164;11.572;2022-09-12T03:08:43;4.07;;;2.20;;
16600;SDS011;34891;48.164;11.572;2022-09-12T03:13:50;5.20;;;2.47;;
16600;SDS011;34891;48.164;11.572;2022-09-12T03:18:57;3.28;;;2.20;;
16600;SDS011;34891;48.164;11.572;2022-09-12T03:24:06;3.42;;;2.17;;
16600;SDS011;34891;48.164;11.572;2022-09-12T03:29:11;5.32;;;2.72;;
16600;SDS011;34891;48.164;11.572;2022-09-12T03:34:16;3.93;;;2.13;;
16600;SDS011;34891;48.164;11.572;2022-09-12T03:44:21;4.13;;;2.25;;
16600;SDS011;34891;48.164;11.572;2022-09-12T03:49:25;3.53;;;2.20;;
16600;SDS011;34891;48.164;11.572;2022-09-12T03:54:28;3.83;;;1.63;;
16600;SDS011;34891;48.164;11.572;2022-09-12T03:59:31;3.78;;;1.80;;
16600;SDS011;34891;48.164;11.572;2022-09-12T04:04:35;5.77;;;2.20;;
16600;SDS011;34891;48.164;11.572;2022-09-12T04:09:38;4.07;;;1.77;;
16600;SDS011;34891;48.164;11.572;2022-09-12T04:14:41;5.07;;;2.30;;
16600;SDS011;34891;48.164;11.572;2022-09-12T04:19:45;5.03;;;2.17;;
16600;SDS011;34891;48.164;11.572;2022-09-12T04:24:48;4.57;;;2.20;;
16600;SDS011;34891;48.164;11.572;2022-09-12T04:29:50;3.55;;;2.17;;
16600;SDS011;34891;48.164;11.572;2022-09-12T04:34:56;4.53;;;2.17;;
16600;SDS011;34891;48.164;11.572;2022-09-12T04:39:59;5.07;;;2.15;;
16600;SDS011;34891;48.164;11.572;2022-09-12T04:45:02;5.30;;;1.90;;
16600;SDS011;34891;48.164;11.572;2022-09-12T04:55:10;3.60;;;2.25;;
16600;SDS011;34891;48.164;11.572;2022-09-12T05:00:14;5.05;;;2.60;;
16600;SDS011;34891;48.164;11.572;2022-09-12T05:05:17;5.55;;;2.30;;
16600;SDS011;34891;48.164;11.572;2022-09-12T05:10:21;9.57;;;3.08;;
16600;SDS011;34891;48.164;11.572;2022-09-12T05:15:24;3.75;;;2.08;;
16600;SDS011;34891;48.164;11.572;2022-09-12T05:20:27;4.10;;;2.17;;
16600;SDS011;34891;48.164;11.572;2022-09-12T05:25:31;9.35;;;3.25;;
16600;SDS011;34891;48.164;11.572;2022-09-12T05:30:34;4.28;;;2.10;;
16600;SDS011;34891;48.164;11.572;2022-09-12T05:35:36;3.72;;;2.20;;
16600;SDS011;34891;48.164;11.572;2022-09-12T05:40:43;4.70;;;2.75;;
16600;SDS011;34891;48.164;11.572;2022-09-12T05:50:49;5.85;;;2.60;;
16600;SDS011;34891;48.164;11.572;2022-09-12T05:56:01;10.00;;;3.00;;
16600;SDS011;34891;48.164;11.572;2022-09-12T06:01:04;4.78;;;2.47;;
16600;SDS011;34891;48.164;11.572;2022-09-12T06:06:08;5.63;;;2.75;;
16600;SDS011;34891;48.164;11.572;2022-09-12T06:11:15;6.47;;;2.85;;
16600;SDS011;34891;48.164;11.572;2022-09-12T06:16:19;6.43;;;2.70;;
16600;SDS011;34891;48.164;11.572;2022-09-12T06:21:23;6.00;;;2.30;;
16600;SDS011;34891;48.164;11.572;2022-09-12T06:26:28;5.63;;;2.88;;
16600;SDS011;34891;48.164;11.572;2022-09-12T06:31:31;5.32;;;2.33;;
16600;SDS011;34891;48.164;11.572;2022-09-12T06:36:35;4.20;;;2.00;;
16600;SDS011;34891;48.164;11.572;2022-09-12T06:41:40;4.05;;;2.30;;
16600;SDS011;34891;48.164;11.572;2022-09-12T06:46:44;3.33;;;2.38;;
16600;SDS011;34891;48.164;11.572;2022-09-12T06:51:47;6.03;;;2.27;;
16600;SDS011;34891;48.164;11.572;2022-09-12T06:56:51;5.13;;;1.98;;
16600;SDS011;34891;48.164;11.572;2022-09-12T07:01:54;4.18;;;2.38;;
16600;SDS011;34891;48.164;11.572;2022-09-12T07:06:57;6.13;;;2.50;;
16600;SDS011;34891;48.164;11.572;2022-09-12T07:12:03;6.32;;;2.50;;
16600;SDS011;34891;48.164;11.572;2022-09-12T07:17:06;5.90;;;2.30;;
16600;SDS011;34891;48.164;11.572;2022-09-12T07:22:10;3.63;;;2.53;;
16600;SDS011;34891;48.164;11.572;2022-09-12T07:27:14;4.43;;;2.60;;
16600;SDS011;34891;48.164;11.572;2022-09-12T07:32:16;8.10;;;3.10;;
16600;SDS011;34891;48.164;11.572;2022-09-12T07:37:21;6.60;;;2.30;;
16600;SDS011;34891;48.164;11.572;2022-09-12T07:42:25;2.67;;;1.95;;
16600;SDS011;34891;48.164;11.572;2022-09-12T07:47:28;13.18;;;8.88;;
16600;SDS011;34891;48.164;11.572;2022-09-12T07:52:31;2.53;;;2.10;;
16600;SDS011;34891;48.164;11.572;2022-09-12T07:57:35;3.70;;;2.10;;
16600;SDS011;34891;48.164;11.572;2022-09-12T08:02:38;3.75;;;2.25;;
16600;SDS011;34891;48.164;11.572;2022-09-12T08:07:41;4.75;;;2.88;;
16600;SDS011;34891;48.164;11.572;2022-09-12T08:12:45;3.45;;;2.20;;
16600;SDS011;34891;48.164;11.572;2022-09-12T08:17:48;2.65;;;2.08;;
16600;SDS011;34891;48.164;11.572;2022-09-12T08:22:50;3.45;;;2.17;;
16600;SDS011;34891;48.164;11.572;2022-09-12T08:27:54;2.28;;;2.05;;
16600;SDS011;34891;48.164;11.572;2022-09-12T08:32:57;2.88;;;2.00;;
16600;SDS011;34891;48.164;11.572;2022-09-12T08:38:00;3.78;;;2.53;;
16600;SDS011;34891;48.164;11.572;2022-09-12T08:43:06;2.22;;;2.00;;
16600;SDS011;34891;48.164;11.572;2022-09-12T08:48:09;3.80;;;2.28;;
16600;SDS011;34891;48.164;11.572;2022-09-12T08:53:14;2.50;;;2.05;;
16600;SDS011;34891;48.164;11.572;2022-09-12T08:58:21;3.45;;;2.10;;
16600;SDS011;34891;48.164;11.572;2022-09-12T09:03:27;2.15;;;1.95;;
16600;SDS011;34891;48.164;11.572;2022-09-12T09:08:37;2.20;;;2.00;;
16600;SDS011;34891;48.164;11.572;2022-09-12T09:13:48;2.30;;;2.10;;
16600;SDS011;34891;48.164;11.572;2022-09-12T09:19:15;2.08;;;1.98;;
16600;SDS011;34891;48.164;11.572;2022-09-12T09:24:21;2.22;;;2.10;;
16600;SDS011;34891;48.164;11.572;2022-09-12T09:29:26;2.50;;;2.30;;
16600;SDS011;34891;48.164;11.572;2022-09-12T09:34:31;3.83;;;2.20;;
16600;SDS011;34891;48.164;11.572;2022-09-12T09:39:38;2.33;;;2.13;;
16600;SDS011;34891;48.164;11.572;2022-09-12T09:44:45;2.40;;;2.20;;
16600;SDS011;34891;48.164;11.572;2022-09-12T09:49:49;2.40;;;2.20;;
16600;SDS011;34891;48.164;11.572;2022-09-12T09:54:53;2.50;;;2.30;;
16600;SDS011;34891;48.164;11.572;2022-09-12T09:59:59;3.42;;;2.20;;
16600;SDS011;34891;48.164;11.572;2022-09-12T10:05:22;2.70;;;2.40;;
16600;SDS011;34891;48.164;11.572;2022-09-12T10:10:24;2.33;;;2.22;;
16600;SDS011;34891;48.164;11.572;2022-09-12T10:15:30;3.75;;;2.72;;
16600;SDS011;34891;48.164;11.572;2022-09-12T10:20:35;4.20;;;2.58;;
16600;SDS011;34891;48.164;11.572;2022-09-12T10:25:39;2.50;;;2.30;;
16600;SDS011;34891;48.164;11.572;2022-09-12T10:30:44;2.40;;;2.20;;
16600;SDS011;34891;48.164;11.572;2022-09-12T10:35:53;3.22;;;2.28;;
16600;SDS011;34891;48.164;11.572;2022-09-12T10:40:57;3.55;;;2.42;;
16600;SDS011;34891;48.164;11.572;2022-09-12T10:51:27;4.05;;;2.40;;
16600;SDS011;34891;48.164;11.572;2022-09-12T10:56:30;2.53;;;2.30;;
16600;SDS011;34891;48.164;11.572;2022-09-12T11:01:36;3.13;;;2.47;;
16600;SDS011;34891;48.164;11.572;2022-09-12T11:06:44;2.70;;;2.40;;
16600;SDS011;34891;48.164;11.572;2022-09-12T11:11:53;2.55;;;2.35;;
16600;SDS011;34891;48.164;11.572;2022-09-12T11:16:58;2.60;;;2.40;;
16600;SDS011;34891;48.164;11.572;2022-09-12T11:22:10;3.38;;;2.00;;
16600;SDS011;34891;48.164;11.572;2022-09-12T11:27:22;2.40;;;2.20;;
16600;SDS011;34891;48.164;11.572;2022-09-12T11:32:42;2.15;;;2.05;;
16600;SDS011;34891;48.164;11.572;2022-09-12T11:37:53;2.70;;;2.50;;
16600;SDS011;34891;48.164;11.572;2022-09-12T11:43:02;2.30;;;1.92;;
16600;SDS011;34891;48.164;11.572;2022-09-12T11:48:11;2.53;;;2.33;;
16600;SDS011;34891;48.164;11.572;2022-09-12T11:53:18;3.85;;;2.20;;
16600;SDS011;34891;48.164;11.572;2022-09-12T11:58:21;2.55;;;2.35;;
16600;SDS011;34891;48.164;11.572;2022-09-12T12:03:27;2.50;;;2.30;;
16600;SDS011;34891;48.164;11.572;2022-09-12T12:08:37;2.60;;;2.40;;
16600;SDS011;34891;48.164;11.572;2022-09-12T12:13:44;2.30;;;2.10;;
16600;SDS011;34891;48.164;11.572;2022-09-12T12:18:52;2.90;;;2.70;;
16600;SDS011;34891;48.164;11.572;2022-09-12T12:24:16;3.78;;;2.30;;
16600;SDS011;34891;48.164;11.572;2022-09-12T12:29:34;3.00;;;2.10;;
16600;SDS011;34891;48.164;11.572;2022-09-12T12:34:43;3.05;;;2.20;;
16600;SDS011;34891;48.164;11.572;2022-09-12T12:39:54;2.88;;;2.30;;
16600;SDS011;34891;48.164;11.572;2022-09-12T12:45:02;3.70;;;2.20;;
16600;SDS011;34891;48.164;11.572;2022-09-12T12:50:07;3.65;;;2.40;;
16600;SDS011;34891;48.164;11.572;2022-09-12T12:55:15;1.90;;;1.70;;
16600;SDS011;34891;48.164;11.572;2022-09-12T13:05:41;2.92;;;2.50;;
16600;SDS011;34891;48.164;11.572;2022-09-12T13:10:49;2.70;;;2.08;;
16600;SDS011;34891;48.164;11.572;2022-09-12T13:15:52;2.10;;;1.90;;
16600;SDS011;34891;48.164;11.572;2022-09-12T13:20:58;2.58;;;2.05;;
16600;SDS011;34891;48.164;11.572;2022-09-12T13:26:08;2.17;;;1.98;;
16600;SDS011;34891;48.164;11.572;2022-09-12T13:31:14;2.72;;;1.92;;
16600;SDS011;34891;48.164;11.572;2022-09-12T13:36:23;1.80;;;1.70;;
16600;SDS011;34891;48.164;11.572;2022-09-12T13:41:36;1.85;;;1.70;;
16600;SDS011;34891;48.164;11.572;2022-09-12T13:46:42;2.10;;;1.80;;
16600;SDS011;34891;48.164;11.572;2022-09-12T13:51:45;1.70;;;1.60;;
16600;SDS011;34891;48.164;11.572;2022-09-12T13:56:54;2.15;;;1.70;;
16600;SDS011;34891;48.164;11.572;2022-09-12T14:01:57;1.95;;;1.70;;
16600;SDS011;34891;48.164;11.572;2022-09-12T14:07:00;1.95;;;1.67;;
16600;SDS011;34891;48.164;11.572;2022-09-12T14:12:05;1.88;;;1.77;;
16600;SDS011;34891;48.164;11.572;2022-09-12T14:17:22;2.45;;;1.75;;
16600;SDS011;34891;48.164;11.572;2022-09-12T14:22:34;1.58;;;1.20;;
16600;SDS011;34891;48.164;11.572;2022-09-12T14:27:41;2.33;;;1.70;;
16600;SDS011;34891;48.164;11.572;2022-09-12T14:33:00;2.30;;;2.00;;
16600;SDS011;34891;48.164;11.572;2022-09-12T14:38:07;8.70;;;4.40;;
16600;SDS011;34891;48.164;11.572;2022-09-12T14:43:18;3.30;;;1.80;;
16600;SDS011;34891;48.164;11.572;2022-09-12T14:48:21;2.38;;;1.67;;
16600;SDS011;34891;48.164;11.572;2022-09-12T14:53:30;2.30;;;1.70;;
16600;SDS011;34891;48.164;11.572;2022-09-12T14:58:34;2.33;;;1.63;;
16600;SDS011;34891;48.164;11.572;2022-09-12T15:03:48;1.70;;;1.60;;
16600;SDS011;34891;48.164;11.572;2022-09-12T15:08:53;2.15;;;1.67;;
16600;SDS011;34891;48.164;11.572;2022-09-12T15:13:57;2.55;;;1.40;;
16600;SDS011;34891;48.164;11.572;2022-09-12T15:19:01;2.53;;;1.55;;
16600;SDS011;34891;48.164;11.572;2022-09-12T15:24:07;1.80;;;1.50;;
16600;SDS011;34891;48.164;11.572;2022-09-12T15:29:12;1.50;;;1.40;;
16600;SDS011;34891;48.164;11.572;2022-09-12T15:34:15;1.80;;;1.60;;
16600;SDS011;34891;48.164;11.572;2022-09-12T15:39:19;2.08;;;1.58;;
16600;SDS011;34891;48.164;11.572;2022-09-12T15:44:24;1.80;;;1.65;;
16600;SDS011;34891;48.164;11.572;2022-09-12T15:49:27;2.10;;;1.48;;
16600;SDS011;34891;48.164;11.572;2022-09-12T15:54:30;2.35;;;1.33;;
16600;SDS011;34891;48.164;11.572;2022-09-12T15:59:34;3.92;;;1.75;;
16600;SDS011;34891;48.164;11.572;2022-09-12T16:04:37;1.75;;;1.60;;
16600;SDS011;34891;48.164;11.572;2022-09-12T16:09:41;3.75;;;1.80;;
16600;SDS011;34891;48.164;11.572;2022-09-12T16:14:45;2.35;;;1.73;;
16600;SDS011;34891;48.164;11.572;2022-09-12T16:19:48;4.20;;;2.00;;
16600;SDS011;34891;48.164;11.572;2022-09-12T16:24:51;2.50;;;1.50;;
16600;SDS011;34891;48.164;11.572;2022-09-12T16:29:56;2.60;;;1.58;;
16600;SDS011;34891;48.164;11.572;2022-09-12T16:34:59;3.72;;;2.13;;
16600;SDS011;34891;48.164;11.572;2022-09-12T16:40:02;3.15;;;1.92;;
16600;SDS011;34891;48.164;11.572;2022-09-12T16:45:07;3.67;;;2.08;;
16600;SDS011;34891;48.164;11.572;2022-09-12T16:50:10;2.20;;;1.98;;
16600;SDS011;34891;48.164;11.572;2022-09-12T16:55:14;3.63;;;2.28;;
16600;SDS011;34891;48.164;11.572;2022-09-12T17:00:18;2.80;;;1.90;;
16600;SDS011;34891;48.164;11.572;2022-09-12T17:05:21;3.05;;;2.28;;
16600;SDS011;34891;48.164;11.572;2022-09-12T17:10:24;3.05;;;1.98;;
16600;SDS011;34891;48.164;11.572;2022-09-12T17:15:29;2.97;;;1.90;;
16600;SDS011;34891;48.164;11.572;2022-09-12T17:20:33;4.22;;;2.47;;
16600;SDS011;34891;48.164;11.572;2022-09-12T17:25:36;3.60;;;2.40;;
16600;SDS011;34891;48.164;11.572;2022-09-12T17:30:40;5.03;;;2.47;;
16600;SDS011;34891;48.164;11.572;2022-09-12T17:35:43;4.53;;;2.72;;
16600;SDS011;34891;48.164;11.572;2022-09-12T17:40:46;4.25;;;2.30;;
16600;SDS011;34891;48.164;11.572;2022-09-12T17:46:02;4.00;;;2.22;;
16600;SDS011;34891;48.164;11.572;2022-09-12T17:51:07;4.82;;;2.85;;
16600;SDS011;34891;48.164;11.572;2022-09-12T17:56:10;3.63;;;2.45;;
16600;SDS011;34891;48.164;11.572;2022-09-12T18:01:14;4.47;;;2.67;;
16600;SDS011;34891;48.164;11.572;2022-09-12T18:06:35;4.15;;;2.83;;
16600;SDS011;34891;48.164;11.572;2022-09-12T18:11:41;5.68;;;2.83;;
16600;SDS011;34891;48.164;11.572;2022-09-12T18:16:46;7.93;;;3.20;;
16600;SDS011;34891;48.164;11.572;2022-09-12T18:21:48;5.97;;;2.88;;
16600;SDS011;34891;48.164;11.572;2022-09-12T18:31:59;6.30;;;3.35;;
16600;SDS011;34891;48.164;11.572;2022-09-12T18:37:03;4.90;;;2.80;;
16600;SDS011;34891;48.164;11.572;2022-09-12T18:42:07;5.68;;;2.67;;
16600;SDS011;34891;48.164;11.572;2022-09-12T18:47:11;6.97;;;3.40;;
16600;SDS011;34891;48.164;11.572;2022-09-12T18:52:14;9.80;;;3.63;;
16600;SDS011;34891;48.164;11.572;2022-09-12T18:57:19;11.52;;;5.40;;
16600;SDS011;34891;48.164;11.572;2022-09-12T19:02:23;7.80;;;3.40;;
16600;SDS011;34891;48.164;11.572;2022-09-12T19:07:29;6.80;;;3.78;;
16600;SDS011;34891;48.164;11.572;2022-09-12T19:12:33;10.20;;;4.35;;
16600;SDS011;34891;48.164;11.572;2022-09-12T19:22:40;8.15;;;3.65;;
16600;SDS011;34891;48.164;11.572;2022-09-12T19:27:44;7.95;;;3.58;;
16600;SDS011;34891;48.164;11.572;2022-09-12T19:32:47;7.80;;;3.67;;
16600;SDS011;34891;48.164;11.572;2022-09-12T19:37:51;10.17;;;4.70;;
16600;SDS011;34891;48.164;11.572;2022-09-12T19:42:53;19.60;;;10.75;;
16600;SDS011;34891;48.164;11.572;2022-09-12T19:47:56;16.97;;;8.07;;
16600;SDS011;34891;48.164;11.572;2022-09-12T19:53:01;8.52;;;4.50;;
16600;SDS011;34891;48.164;11.572;2022-09-12T19:58:04;8.13;;;4.22;;
16600;SDS011;34891;48.164;11.572;2022-09-12T20:03:07;7.03;;;3.90;;
16600;SDS011;34891;48.164;11.572;2022-09-12T20:08:11;10.37;;;5.23;;
16600;SDS011;34891;48.164;11.572;2022-09-12T20:13:13;9.63;;;4.70;;
16600;SDS011;34891;48.164;11.572;2022-09-12T20:18:16;9.27;;;5.03;;
16600;SDS011;34891;48.164;11.572;2022-09-12T20:23:23;14.88;;;7.28;;
16600;SDS011;34891;48.164;11.572;2022-09-12T20:28:26;9.00;;;4.40;;
16600;SDS011;34891;48.164;11.572;2022-09-12T20:33:29;8.90;;;4.53;;
16600;SDS011;34891;48.164;11.572;2022-09-12T20:43:40;9.50;;;4.57;;
16600;SDS011;34891;48.164;11.572;2022-09-12T20:48:43;8.70;;;4.28;;
16600;SDS011;34891;48.164;11.572;2022-09-12T20:53:47;7.90;;;3.80;;
16600;SDS011;34891;48.164;11.572;2022-09-12T20:58:52;9.18;;;4.30;;
16600;SDS011;34891;48.164;11.572;2022-09-12T21:03:55;8.95;;;4.78;;
16600;SDS011;34891;48.164;11.572;2022-09-12T21:08:58;8.60;;;3.85;;
16600;SDS011;34891;48.164;11.572;2022-09-12T21:14:02;8.60;;;4.33;;
16600;SDS011;34891;48.164;11.572;2022-09-12T21:19:10;8.45;;;3.53;;
16600;SDS011;34891;48.164;11.572;2022-09-12T21:24:12;10.20;;;4.63;;
16600;SDS011;34891;48.164;11.572;2022-09-12T21:29:17;7.17;;;3.83;;
16600;SDS011;34891;48.164;11.572;2022-09-12T21:34:20;8.40;;;3.88;;
16600;SDS011;34891;48.164;11.572;2022-09-12T21:39:23;5.47;;;3.28;;
16600;SDS011;34891;48.164;11.572;2022-09-12T21:44:27;8.55;;;4.25;;
16600;SDS011;34891;48.164;11.572;2022-09-12T21:49:30;7.80;;;3.80;;
16600;SDS011;34891;48.164;11.572;2022-09-12T21:54:42;7.68;;;3.85;;
16600;SDS011;34891;48.164;11.572;2022-09-12T21:59:46;7.43;;;3.80;;
16600;SDS011;34891;48.164;11.572;2022-09-12T22:04:49;9.70;;;4.10;;
16600;SDS011;34891;48.164;11.572;2022-09-12T22:09:51;9.57;;;4.03;;
16600;SDS011;34891;48.164;11.572;2022-09-12T22:14:55;8.57;;;4.00;;
16600;SDS011;34891;48.164;11.572;2022-09-12T22:19:58;12.00;;;4.95;;
16600;SDS011;34891;48.164;11.572;2022-09-12T22:25:01;8.23;;;3.80;;
16600;SDS011;34891;48.164;11.572;2022-09-12T22:30:06;7.10;;;3.70;;
16600;SDS011;34891;48.164;11.572;2022-09-12T22:35:09;7.07;;;3.55;;
16600;SDS011;34891;48.164;11.572;2022-09-12T22:40:12;7.18;;;3.47;;
16600;SDS011;34891;48.164;11.572;2022-09-12T22:45:17;5.28;;;3.15;;
16600;SDS011;34891;48.164;11.572;2022-09-12T22:50:20;7.63;;;3.53;;
16600;SDS011;34891;48.164;11.572;2022-09-12T22:55:23;5.93;;;3.27;;
16600;SDS011;34891;48.164;11.572;2022-09-12T23:00:28;5.13;;;2.73;;
16600;SDS011;34891;48.164;11.572;2022-09-12T23:05:34;5.60;;;2.90;;
16600;SDS011;34891;48.164;11.572;2022-09-12T23:10:42;4.80;;;2.70;;
16600;SDS011;34891;48.164;11.572;2022-09-12T23:15:46;5.75;;;3.20;;
16600;SDS011;34891;48.164;11.572;2022-09-12T23:20:57;5.57;;;2.75;;
16600;SDS011;34891;48.164;11.572;2022-09-12T23:26:00;4.85;;;3.13;;
16600;SDS011;34891;48.164;11.572;2022-09-12T23:31:05;6.93;;;3.22;;
16600;SDS011;34891;48.164;11.572;2022-09-12T23:36:10;5.60;;;2.72;;
16600;SDS011;34891;48.164;11.572;2022-09-12T23:41:15;5.70;;;3.08;;
16600;SDS011;34891;48.164;11.572;2022-09-12T23:46:20;4.38;;;2.40;;
16600;SDS011;34891;48.164;11.572;2022-09-12T23:51:22;6.32;;;2.58;;
16600;SDS011;34891;48.164;11.572;2022-09-12T23:56:25;6.70;;;2.80;;
